SWA3463 KORF-KBNA
Flight info
| Callsign | SWA3463 |
|---|---|
| Flight time | 1h 38m |
| Altitude | 40000 |
| Route | NUTIY1 RDU SHPRD EDDDY SWFFT3 |
| Aircraft | B738/M-SADE2E3GIJ4RWZ/LB1D1 |
Departure
| Time | 2026-05-05 15:04 |
|---|---|
| Airport | Norfolk International Airport (KORF) |
Arrival
| Time | 2026-05-05 16:43 |
|---|---|
| Airport | Nashville International Airport (KBNA) |
| Time | Latitude | Longitude | Altitude | Speed | Heading |
|---|---|---|---|---|---|
| 2026-05-05 14:33 | 36.89964 | -76.20217 | 2 ft | 0 kts | 193° |
| 2026-05-05 14:57 | 36.89977 | -76.20214 | 3 ft | 4 kts | 187° |
| 2026-05-05 14:57 | 36.90004 | -76.20214 | 3 ft | 4 kts | 162° |
| 2026-05-05 14:57 | 36.90024 | -76.20230 | 4 ft | 4 kts | 113° |
| 2026-05-05 14:57 | 36.90027 | -76.20243 | 3 ft | 1 kts | 102° |
| 2026-05-05 14:58 | 36.90027 | -76.20244 | 3 ft | 0 kts | 102° |
| 2026-05-05 15:00 | 36.90027 | -76.20242 | 2 ft | 1 kts | 103° |
| 2026-05-05 15:00 | 36.90025 | -76.20229 | 2 ft | 4 kts | 103° |
| 2026-05-05 15:00 | 36.90009 | -76.20135 | 3 ft | 13 kts | 96° |
| 2026-05-05 15:00 | 36.90007 | -76.19998 | 2 ft | 18 kts | 98° |
| 2026-05-05 15:01 | 36.89973 | -76.19867 | 3 ft | 14 kts | 124° |
| 2026-05-05 15:01 | 36.89929 | -76.19770 | 2 ft | 12 kts | 86° |
| 2026-05-05 15:01 | 36.89984 | -76.19696 | 2 ft | 12 kts | 39° |
| 2026-05-05 15:01 | 36.90056 | -76.19623 | 2 ft | 15 kts | 38° |
| 2026-05-05 15:02 | 36.90154 | -76.19545 | 2 ft | 18 kts | 28° |
| 2026-05-05 15:02 | 36.90276 | -76.19459 | 3 ft | 22 kts | 36° |
| 2026-05-05 15:02 | 36.90400 | -76.19342 | 2 ft | 22 kts | 37° |
| 2026-05-05 15:02 | 36.90520 | -76.19226 | 1 ft | 22 kts | 38° |
| 2026-05-05 15:03 | 36.90612 | -76.19112 | 1 ft | 14 kts | 76° |
| 2026-05-05 15:03 | 36.90575 | -76.19023 | 0 ft | 14 kts | 128° |
| 2026-05-05 15:03 | 36.90517 | -76.18970 | -1 ft | 7 kts | 201° |
| 2026-05-05 15:03 | 36.90502 | -76.18983 | -1 ft | 0 kts | 218° |
| 2026-05-05 15:04 | 36.90478 | -76.19006 | 0 ft | 26 kts | 218° |
| 2026-05-05 15:04 | 36.90110 | -76.19359 | 3 ft | 105 kts | 218° |
| 2026-05-05 15:04 | 36.89379 | -76.20069 | 176 ft | 151 kts | 218° |
| 2026-05-05 15:04 | 36.88556 | -76.20832 | 1166 ft | 151 kts | 217° |
| 2026-05-05 15:05 | 36.86683 | -76.22657 | 1972 ft | 195 kts | 220° |
| 2026-05-05 15:05 | 36.85738 | -76.23991 | 2159 ft | 219 kts | 248° |
| 2026-05-05 15:05 | 36.85647 | -76.25951 | 2594 ft | 242 kts | 282° |
| 2026-05-05 15:06 | 36.86424 | -76.27855 | 3428 ft | 253 kts | 304° |
| 2026-05-05 15:06 | 36.87706 | -76.29417 | 4081 ft | 262 kts | 315° |
| 2026-05-05 15:06 | 36.89117 | -76.30884 | 4959 ft | 266 kts | 315° |
| 2026-05-05 15:06 | 36.90540 | -76.32390 | 5827 ft | 271 kts | 315° |
| 2026-05-05 15:07 | 36.91980 | -76.33955 | 6847 ft | 275 kts | 314° |
| 2026-05-05 15:07 | 36.93396 | -76.35530 | 7915 ft | 274 kts | 310° |
| 2026-05-05 15:07 | 36.94404 | -76.37502 | 8932 ft | 269 kts | 284° |
| 2026-05-05 15:07 | 36.94697 | -76.39799 | 9961 ft | 269 kts | 270° |
| 2026-05-05 15:08 | 36.94692 | -76.42177 | 10676 ft | 283 kts | 267° |
| 2026-05-05 15:08 | 36.94637 | -76.44760 | 10893 ft | 313 kts | 267° |
| 2026-05-05 15:08 | 36.94592 | -76.47604 | 11105 ft | 340 kts | 268° |
| 2026-05-05 15:08 | 36.94563 | -76.50632 | 11587 ft | 354 kts | 266° |
| 2026-05-05 15:09 | 36.94300 | -76.53685 | 12421 ft | 355 kts | 256° |
| 2026-05-05 15:09 | 36.93568 | -76.56649 | 13236 ft | 359 kts | 247° |
| 2026-05-05 15:09 | 36.92427 | -76.59432 | 14091 ft | 361 kts | 239° |
| 2026-05-05 15:09 | 36.91111 | -76.62073 | 14845 ft | 365 kts | 238° |
| 2026-05-05 15:10 | 36.89742 | -76.64767 | 15599 ft | 368 kts | 238° |
| 2026-05-05 15:10 | 36.88362 | -76.67481 | 16341 ft | 372 kts | 238° |
| 2026-05-05 15:10 | 36.86973 | -76.70225 | 17093 ft | 375 kts | 239° |
| 2026-05-05 15:10 | 36.85578 | -76.72995 | 17817 ft | 379 kts | 239° |
| 2026-05-05 15:11 | 36.84171 | -76.75798 | 18505 ft | 383 kts | 239° |
| 2026-05-05 15:11 | 36.82749 | -76.78637 | 19103 ft | 387 kts | 239° |
| 2026-05-05 15:11 | 36.81317 | -76.81498 | 19690 ft | 391 kts | 239° |
| 2026-05-05 15:11 | 36.79869 | -76.84387 | 20273 ft | 395 kts | 239° |
| 2026-05-05 15:12 | 36.78410 | -76.87298 | 20852 ft | 399 kts | 240° |
| 2026-05-05 15:12 | 36.76927 | -76.90253 | 21387 ft | 403 kts | 240° |
| 2026-05-05 15:12 | 36.75430 | -76.93235 | 21928 ft | 407 kts | 240° |
| 2026-05-05 15:12 | 36.73918 | -76.96243 | 22449 ft | 411 kts | 240° |
| 2026-05-05 15:13 | 36.72392 | -76.99275 | 22972 ft | 414 kts | 240° |
| 2026-05-05 15:13 | 36.70856 | -77.02340 | 23479 ft | 418 kts | 240° |
| 2026-05-05 15:13 | 36.69369 | -77.05467 | 23923 ft | 421 kts | 242° |
| 2026-05-05 15:13 | 36.67922 | -77.08609 | 24345 ft | 424 kts | 242° |
| 2026-05-05 15:14 | 36.66459 | -77.11812 | 24777 ft | 427 kts | 242° |
| 2026-05-05 15:14 | 36.64983 | -77.15035 | 25187 ft | 429 kts | 242° |
| 2026-05-05 15:14 | 36.63493 | -77.18270 | 25598 ft | 432 kts | 242° |
| 2026-05-05 15:14 | 36.61982 | -77.21531 | 25991 ft | 435 kts | 242° |
| 2026-05-05 15:15 | 36.60461 | -77.24802 | 26301 ft | 440 kts | 243° |
| 2026-05-05 15:15 | 36.58917 | -77.28117 | 26560 ft | 445 kts | 243° |
| 2026-05-05 15:15 | 36.57355 | -77.31462 | 26960 ft | 447 kts | 243° |
| 2026-05-05 15:15 | 36.55790 | -77.34809 | 27337 ft | 448 kts | 242° |
| 2026-05-05 15:16 | 36.54242 | -77.38120 | 27748 ft | 449 kts | 242° |
| 2026-05-05 15:16 | 36.52669 | -77.41480 | 28207 ft | 449 kts | 243° |
| 2026-05-05 15:16 | 36.51099 | -77.44832 | 28731 ft | 448 kts | 243° |
| 2026-05-05 15:16 | 36.49538 | -77.48160 | 29276 ft | 446 kts | 243° |
| 2026-05-05 15:17 | 36.47969 | -77.51501 | 29801 ft | 445 kts | 243° |
| 2026-05-05 15:17 | 36.46407 | -77.54822 | 30265 ft | 445 kts | 243° |
| 2026-05-05 15:17 | 36.44847 | -77.58138 | 30682 ft | 444 kts | 243° |
| 2026-05-05 15:17 | 36.43286 | -77.61451 | 31041 ft | 445 kts | 243° |
| 2026-05-05 15:18 | 36.41714 | -77.64789 | 31295 ft | 448 kts | 243° |
| 2026-05-05 15:18 | 36.40141 | -77.68127 | 31664 ft | 448 kts | 243° |
| 2026-05-05 15:18 | 36.38565 | -77.71463 | 32157 ft | 446 kts | 244° |
| 2026-05-05 15:18 | 36.37001 | -77.74772 | 32639 ft | 443 kts | 244° |
| 2026-05-05 15:19 | 36.35442 | -77.78069 | 33021 ft | 443 kts | 244° |
| 2026-05-05 15:19 | 36.33904 | -77.81318 | 33420 ft | 442 kts | 244° |
| 2026-05-05 15:19 | 36.32343 | -77.84615 | 33809 ft | 442 kts | 244° |
| 2026-05-05 15:19 | 36.30786 | -77.87898 | 34195 ft | 441 kts | 244° |
| 2026-05-05 15:20 | 36.29230 | -77.91174 | 34540 ft | 440 kts | 244° |
| 2026-05-05 15:20 | 36.27673 | -77.94446 | 34878 ft | 440 kts | 244° |
| 2026-05-05 15:20 | 36.26118 | -77.97711 | 35179 ft | 440 kts | 245° |
| 2026-05-05 15:20 | 36.24561 | -78.00979 | 35418 ft | 441 kts | 245° |
| 2026-05-05 15:21 | 36.23000 | -78.04253 | 35749 ft | 441 kts | 245° |
| 2026-05-05 15:21 | 36.21461 | -78.07476 | 36129 ft | 439 kts | 245° |
| 2026-05-05 15:21 | 36.19908 | -78.10725 | 36514 ft | 437 kts | 245° |
| 2026-05-05 15:21 | 36.18362 | -78.13957 | 36856 ft | 436 kts | 245° |
| 2026-05-05 15:22 | 36.16816 | -78.17189 | 37162 ft | 435 kts | 245° |
| 2026-05-05 15:22 | 36.15272 | -78.20412 | 37474 ft | 434 kts | 245° |
| 2026-05-05 15:22 | 36.13728 | -78.23632 | 37826 ft | 433 kts | 245° |
| 2026-05-05 15:22 | 36.12192 | -78.26834 | 38135 ft | 433 kts | 245° |
| 2026-05-05 15:23 | 36.10648 | -78.30053 | 38126 ft | 438 kts | 245° |
| 2026-05-05 15:23 | 36.07527 | -78.36544 | 38131 ft | 437 kts | 245° |
| 2026-05-05 15:24 | 36.04460 | -78.42898 | 38130 ft | 430 kts | 245° |
| 2026-05-05 15:24 | 36.01391 | -78.49255 | 38134 ft | 430 kts | 245° |
| 2026-05-05 15:25 | 35.98328 | -78.55592 | 38129 ft | 429 kts | 245° |
| 2026-05-05 15:25 | 35.95259 | -78.61927 | 38105 ft | 430 kts | 245° |
| 2026-05-05 15:26 | 35.92188 | -78.68253 | 38110 ft | 430 kts | 246° |
| 2026-05-05 15:26 | 35.89107 | -78.74593 | 38092 ft | 430 kts | 247° |
| 2026-05-05 15:27 | 35.86916 | -78.81246 | 38122 ft | 416 kts | 263° |
| 2026-05-05 15:27 | 35.86017 | -78.88226 | 38121 ft | 412 kts | 268° |
| 2026-05-05 15:28 | 35.85195 | -78.95230 | 38109 ft | 414 kts | 268° |
| 2026-05-05 15:28 | 35.84345 | -79.02260 | 38117 ft | 415 kts | 268° |
| 2026-05-05 15:29 | 35.83475 | -79.09295 | 38104 ft | 415 kts | 269° |
| 2026-05-05 15:29 | 35.82745 | -79.15142 | 38102 ft | 415 kts | 269° |
| 2026-05-05 15:30 | 35.81720 | -79.23304 | 38098 ft | 414 kts | 269° |
| 2026-05-05 15:30 | 35.80837 | -79.30303 | 38110 ft | 413 kts | 269° |
| 2026-05-05 15:31 | 35.80100 | -79.36122 | 38111 ft | 413 kts | 269° |
| 2026-05-05 15:31 | 35.79212 | -79.43102 | 38098 ft | 412 kts | 269° |
| 2026-05-05 15:32 | 35.78320 | -79.50068 | 38097 ft | 410 kts | 270° |
| 2026-05-05 15:32 | 35.77435 | -79.56959 | 38110 ft | 409 kts | 270° |
| 2026-05-05 15:33 | 35.76542 | -79.63886 | 38114 ft | 409 kts | 270° |
| 2026-05-05 15:33 | 35.75648 | -79.70789 | 38113 ft | 408 kts | 270° |
| 2026-05-05 15:34 | 35.74749 | -79.77695 | 38121 ft | 408 kts | 270° |
| 2026-05-05 15:34 | 35.73847 | -79.84599 | 38119 ft | 408 kts | 270° |
| 2026-05-05 15:35 | 35.72939 | -79.91499 | 38116 ft | 408 kts | 270° |
| 2026-05-05 15:35 | 35.72027 | -79.98402 | 38132 ft | 408 kts | 270° |
| 2026-05-05 15:36 | 35.71112 | -80.05305 | 38116 ft | 408 kts | 270° |
| 2026-05-05 15:36 | 35.70200 | -80.12153 | 38096 ft | 408 kts | 270° |
| 2026-05-05 15:37 | 35.69275 | -80.19061 | 38102 ft | 408 kts | 270° |
| 2026-05-05 15:37 | 35.68350 | -80.25940 | 38090 ft | 407 kts | 270° |
| 2026-05-05 15:38 | 35.67423 | -80.32805 | 38104 ft | 406 kts | 270° |
| 2026-05-05 15:38 | 35.66496 | -80.39650 | 38106 ft | 405 kts | 270° |
| 2026-05-05 15:39 | 35.65625 | -80.46452 | 38102 ft | 400 kts | 274° |
| 2026-05-05 15:39 | 35.65821 | -80.53134 | 38112 ft | 387 kts | 284° |
| 2026-05-05 15:40 | 35.66424 | -80.59704 | 38101 ft | 386 kts | 284° |
| 2026-05-05 15:40 | 35.67008 | -80.66269 | 38080 ft | 386 kts | 284° |
| 2026-05-05 15:41 | 35.67579 | -80.72842 | 38085 ft | 386 kts | 283° |
| 2026-05-05 15:41 | 35.68142 | -80.79416 | 38093 ft | 386 kts | 283° |
| 2026-05-05 15:42 | 35.68701 | -80.86002 | 38097 ft | 387 kts | 283° |
| 2026-05-05 15:42 | 35.69256 | -80.92584 | 38090 ft | 387 kts | 284° |
| 2026-05-05 15:43 | 35.69807 | -80.99168 | 38101 ft | 387 kts | 283° |
| 2026-05-05 15:43 | 35.70355 | -81.05752 | 38097 ft | 387 kts | 283° |
| 2026-05-05 15:44 | 35.70896 | -81.12297 | 38079 ft | 387 kts | 283° |
| 2026-05-05 15:44 | 35.71436 | -81.18878 | 38080 ft | 386 kts | 283° |
| 2026-05-05 15:45 | 35.71973 | -81.25456 | 38087 ft | 386 kts | 283° |
| 2026-05-05 15:45 | 35.72504 | -81.32027 | 38094 ft | 384 kts | 283° |
| 2026-05-05 15:46 | 35.73028 | -81.38553 | 38086 ft | 382 kts | 284° |
| 2026-05-05 15:46 | 35.73547 | -81.45051 | 38089 ft | 380 kts | 284° |
| 2026-05-05 15:47 | 35.74061 | -81.51522 | 38093 ft | 379 kts | 283° |
| 2026-05-05 15:47 | 35.74571 | -81.57987 | 38132 ft | 379 kts | 283° |
| 2026-05-05 15:48 | 35.75077 | -81.64448 | 38128 ft | 379 kts | 283° |
| 2026-05-05 15:48 | 35.75578 | -81.70898 | 38126 ft | 377 kts | 283° |
| 2026-05-05 15:49 | 35.76070 | -81.77274 | 38106 ft | 376 kts | 283° |
| 2026-05-05 15:49 | 35.76561 | -81.83679 | 38095 ft | 375 kts | 283° |
| 2026-05-05 15:50 | 35.77049 | -81.90079 | 38070 ft | 375 kts | 283° |
| 2026-05-05 15:50 | 35.77532 | -81.96472 | 38053 ft | 375 kts | 283° |
| 2026-05-05 15:51 | 35.78007 | -82.02832 | 38032 ft | 375 kts | 283° |
| 2026-05-05 15:51 | 35.78485 | -82.09237 | 38043 ft | 375 kts | 283° |
| 2026-05-05 15:52 | 35.78961 | -82.15656 | 38007 ft | 376 kts | 283° |
| 2026-05-05 15:52 | 35.79426 | -82.22035 | 38035 ft | 377 kts | 283° |
| 2026-05-05 15:53 | 35.79842 | -82.28561 | 37997 ft | 383 kts | 283° |
| 2026-05-05 15:53 | 35.80345 | -82.35084 | 38000 ft | 384 kts | 283° |
| 2026-05-05 15:54 | 35.80833 | -82.41616 | 38013 ft | 380 kts | 283° |
| 2026-05-05 15:54 | 35.81291 | -82.47997 | 38016 ft | 372 kts | 283° |
| 2026-05-05 15:55 | 35.81744 | -82.54339 | 38026 ft | 371 kts | 283° |
| 2026-05-05 15:55 | 35.82190 | -82.60668 | 38027 ft | 369 kts | 283° |
| 2026-05-05 15:56 | 35.82630 | -82.66969 | 38032 ft | 369 kts | 283° |
| 2026-05-05 15:56 | 35.83064 | -82.73242 | 38034 ft | 372 kts | 283° |
| 2026-05-05 15:57 | 35.83504 | -82.79667 | 38004 ft | 377 kts | 282° |
| 2026-05-05 15:57 | 35.83921 | -82.86066 | 38020 ft | 370 kts | 282° |
| 2026-05-05 15:58 | 35.84354 | -82.92360 | 38032 ft | 368 kts | 283° |
| 2026-05-05 15:58 | 35.84782 | -82.98651 | 38044 ft | 368 kts | 283° |
| 2026-05-05 15:59 | 35.85200 | -83.04914 | 38031 ft | 367 kts | 282° |
| 2026-05-05 15:59 | 35.85618 | -83.11179 | 38008 ft | 367 kts | 282° |
| 2026-05-05 16:00 | 35.86031 | -83.17446 | 38036 ft | 364 kts | 282° |
| 2026-05-05 16:00 | 35.86432 | -83.23671 | 38021 ft | 364 kts | 282° |
| 2026-05-05 16:01 | 35.86826 | -83.29874 | 38022 ft | 362 kts | 282° |
| 2026-05-05 16:01 | 35.87215 | -83.35992 | 38016 ft | 359 kts | 282° |
| 2026-05-05 16:02 | 35.87605 | -83.42144 | 38017 ft | 360 kts | 282° |
| 2026-05-05 16:02 | 35.87994 | -83.48307 | 38007 ft | 361 kts | 282° |
| 2026-05-05 16:03 | 35.88379 | -83.54480 | 38018 ft | 360 kts | 282° |
| 2026-05-05 16:03 | 35.88757 | -83.60598 | 38024 ft | 359 kts | 282° |
| 2026-05-05 16:04 | 35.89131 | -83.66721 | 38039 ft | 358 kts | 282° |
| 2026-05-05 16:04 | 35.89503 | -83.72836 | 38039 ft | 357 kts | 282° |
| 2026-05-05 16:05 | 35.89872 | -83.78953 | 38059 ft | 357 kts | 282° |
| 2026-05-05 16:05 | 35.90237 | -83.85056 | 38064 ft | 357 kts | 282° |
| 2026-05-05 16:06 | 35.90290 | -83.91219 | 38033 ft | 371 kts | 270° |
| 2026-05-05 16:06 | 35.89253 | -83.97480 | 38044 ft | 373 kts | 269° |
| 2026-05-05 16:07 | 35.88191 | -84.03726 | 38055 ft | 372 kts | 269° |
| 2026-05-05 16:07 | 35.87153 | -84.09927 | 38037 ft | 371 kts | 269° |
| 2026-05-05 16:08 | 35.86118 | -84.16158 | 38024 ft | 371 kts | 269° |
| 2026-05-05 16:08 | 35.85082 | -84.22424 | 37613 ft | 375 kts | 269° |
| 2026-05-05 16:08 | 35.84560 | -84.25557 | 37081 ft | 371 kts | 268° |
| 2026-05-05 16:09 | 35.84042 | -84.28647 | 36541 ft | 368 kts | 268° |
| 2026-05-05 16:09 | 35.83527 | -84.31729 | 35968 ft | 365 kts | 268° |
| 2026-05-05 16:09 | 35.83016 | -84.34786 | 35320 ft | 363 kts | 267° |
| 2026-05-05 16:09 | 35.82507 | -84.37828 | 34709 ft | 362 kts | 266° |
| 2026-05-05 16:10 | 35.81996 | -84.40900 | 34084 ft | 370 kts | 266° |
| 2026-05-05 16:10 | 35.81471 | -84.44088 | 33311 ft | 388 kts | 265° |
| 2026-05-05 16:10 | 35.80924 | -84.47382 | 32552 ft | 394 kts | 264° |
| 2026-05-05 16:10 | 35.80373 | -84.50647 | 31801 ft | 393 kts | 264° |
| 2026-05-05 16:11 | 35.79812 | -84.53944 | 31045 ft | 392 kts | 263° |
| 2026-05-05 16:11 | 35.78136 | -84.63817 | 29338 ft | 404 kts | 262° |
| 2026-05-05 16:12 | 35.77565 | -84.67170 | 28738 ft | 397 kts | 262° |
| 2026-05-05 16:12 | 35.76448 | -84.73701 | 27640 ft | 385 kts | 261° |
| 2026-05-05 16:13 | 35.74802 | -84.83333 | 26086 ft | 387 kts | 261° |
| 2026-05-05 16:13 | 35.74249 | -84.86556 | 25571 ft | 381 kts | 261° |
| 2026-05-05 16:13 | 35.73703 | -84.89725 | 25055 ft | 375 kts | 261° |
| 2026-05-05 16:14 | 35.72629 | -84.95949 | 24035 ft | 368 kts | 261° |
| 2026-05-05 16:14 | 35.71570 | -85.02089 | 22954 ft | 369 kts | 260° |
| 2026-05-05 16:15 | 35.70508 | -85.08225 | 21894 ft | 364 kts | 259° |
| 2026-05-05 16:15 | 35.69458 | -85.14259 | 20903 ft | 357 kts | 258° |
| 2026-05-05 16:16 | 35.68415 | -85.20229 | 20000 ft | 362 kts | 258° |
| 2026-05-05 16:16 | 35.67313 | -85.26301 | 19568 ft | 366 kts | 257° |
| 2026-05-05 16:17 | 35.66191 | -85.32382 | 19138 ft | 363 kts | 257° |
| 2026-05-05 16:17 | 35.65633 | -85.35405 | 18932 ft | 362 kts | 257° |
| 2026-05-05 16:18 | 35.64521 | -85.41433 | 18536 ft | 360 kts | 257° |
| 2026-05-05 16:18 | 35.63973 | -85.44398 | 18335 ft | 360 kts | 257° |
| 2026-05-05 16:18 | 35.62865 | -85.50389 | 17872 ft | 358 kts | 257° |
| 2026-05-05 16:19 | 35.62313 | -85.53361 | 17662 ft | 356 kts | 257° |
| 2026-05-05 16:19 | 35.61762 | -85.56333 | 17451 ft | 355 kts | 257° |
| 2026-05-05 16:19 | 35.60663 | -85.62238 | 17048 ft | 353 kts | 257° |
| 2026-05-05 16:20 | 35.59753 | -85.67115 | 16715 ft | 352 kts | 257° |
| 2026-05-05 16:20 | 35.58660 | -85.72965 | 16318 ft | 351 kts | 257° |
| 2026-05-05 16:21 | 35.57569 | -85.78786 | 15927 ft | 348 kts | 257° |
| 2026-05-05 16:22 | 35.55983 | -85.87462 | 15323 ft | 340 kts | 263° |
| 2026-05-05 16:22 | 35.56923 | -85.92889 | 14954 ft | 326 kts | 294° |
| 2026-05-05 16:23 | 35.59785 | -85.97238 | 14604 ft | 332 kts | 309° |
| 2026-05-05 16:23 | 35.61387 | -85.99316 | 14413 ft | 337 kts | 309° |
| 2026-05-05 16:23 | 35.64572 | -86.03511 | 14005 ft | 333 kts | 309° |
| 2026-05-05 16:24 | 35.66137 | -86.05604 | 13830 ft | 332 kts | 309° |
| 2026-05-05 16:24 | 35.67693 | -86.07692 | 13617 ft | 331 kts | 309° |
| 2026-05-05 16:24 | 35.70777 | -86.11831 | 13230 ft | 330 kts | 308° |
| 2026-05-05 16:25 | 35.72252 | -86.13979 | 13029 ft | 328 kts | 303° |
| 2026-05-05 16:25 | 35.74939 | -86.18500 | 12648 ft | 328 kts | 301° |
| 2026-05-05 16:25 | 35.76271 | -86.20779 | 12452 ft | 327 kts | 302° |
| 2026-05-05 16:26 | 35.78952 | -86.25322 | 12084 ft | 327 kts | 302° |
| 2026-05-05 16:26 | 35.81642 | -86.29838 | 11705 ft | 327 kts | 302° |
| 2026-05-05 16:27 | 35.82978 | -86.32076 | 11510 ft | 327 kts | 302° |
| 2026-05-05 16:27 | 35.84327 | -86.34333 | 11331 ft | 327 kts | 302° |
| 2026-05-05 16:27 | 35.85673 | -86.36585 | 11147 ft | 326 kts | 302° |
| 2026-05-05 16:27 | 35.87024 | -86.38847 | 10957 ft | 326 kts | 302° |
| 2026-05-05 16:28 | 35.88371 | -86.41105 | 10766 ft | 327 kts | 302° |
| 2026-05-05 16:28 | 35.89716 | -86.43359 | 10579 ft | 325 kts | 302° |
| 2026-05-05 16:28 | 35.91046 | -86.45587 | 10399 ft | 316 kts | 302° |
| 2026-05-05 16:28 | 35.92331 | -86.47739 | 10214 ft | 307 kts | 302° |
| 2026-05-05 16:29 | 35.93581 | -86.49836 | 10070 ft | 299 kts | 302° |
| 2026-05-05 16:29 | 35.94778 | -86.51849 | 9982 ft | 288 kts | 302° |
| 2026-05-05 16:29 | 35.95942 | -86.53804 | 9761 ft | 283 kts | 302° |
| 2026-05-05 16:29 | 35.97102 | -86.55758 | 9483 ft | 280 kts | 302° |
| 2026-05-05 16:30 | 35.98252 | -86.57678 | 9271 ft | 277 kts | 304° |
| 2026-05-05 16:30 | 35.99758 | -86.59169 | 9036 ft | 284 kts | 332° |
| 2026-05-05 16:30 | 36.01697 | -86.59620 | 8853 ft | 288 kts | 360° |
| 2026-05-05 16:30 | 36.03650 | -86.59097 | 8668 ft | 286 kts | 17° |
| 2026-05-05 16:31 | 36.05520 | -86.58311 | 8477 ft | 282 kts | 17° |
| 2026-05-05 16:31 | 36.07371 | -86.57541 | 8270 ft | 278 kts | 16° |
| 2026-05-05 16:31 | 36.09224 | -86.56784 | 7727 ft | 282 kts | 16° |
| 2026-05-05 16:31 | 36.11090 | -86.56047 | 7224 ft | 282 kts | 14° |
| 2026-05-05 16:32 | 36.12975 | -86.55395 | 6775 ft | 280 kts | 13° |
| 2026-05-05 16:32 | 36.14853 | -86.54778 | 6538 ft | 278 kts | 13° |
| 2026-05-05 16:32 | 36.16718 | -86.54175 | 6292 ft | 276 kts | 13° |
| 2026-05-05 16:32 | 36.18570 | -86.53558 | 6026 ft | 275 kts | 13° |
| 2026-05-05 16:33 | 36.20424 | -86.52945 | 5677 ft | 276 kts | 13° |
| 2026-05-05 16:33 | 36.22248 | -86.52347 | 5579 ft | 266 kts | 12° |
| 2026-05-05 16:33 | 36.24013 | -86.51809 | 5482 ft | 257 kts | 11° |
| 2026-05-05 16:33 | 36.25729 | -86.51268 | 5354 ft | 253 kts | 12° |
| 2026-05-05 16:34 | 36.27433 | -86.50751 | 5150 ft | 251 kts | 10° |
| 2026-05-05 16:34 | 36.29125 | -86.50237 | 4932 ft | 251 kts | 12° |
| 2026-05-05 16:34 | 36.30826 | -86.49672 | 4647 ft | 253 kts | 12° |
| 2026-05-05 16:34 | 36.32522 | -86.49101 | 4408 ft | 253 kts | 14° |
| 2026-05-05 16:35 | 36.34183 | -86.48489 | 4225 ft | 250 kts | 14° |
| 2026-05-05 16:35 | 36.35835 | -86.47869 | 4101 ft | 245 kts | 14° |
| 2026-05-05 16:35 | 36.37467 | -86.47638 | 4005 ft | 226 kts | 343° |
| 2026-05-05 16:35 | 36.38793 | -86.48441 | 4011 ft | 206 kts | 307° |
| 2026-05-05 16:36 | 36.39426 | -86.49928 | 4006 ft | 190 kts | 270° |
| 2026-05-05 16:36 | 36.39190 | -86.51457 | 4013 ft | 179 kts | 239° |
| 2026-05-05 16:36 | 36.38578 | -86.52802 | 3994 ft | 180 kts | 236° |
| 2026-05-05 16:36 | 36.37921 | -86.54147 | 3862 ft | 183 kts | 236° |
| 2026-05-05 16:37 | 36.37257 | -86.55495 | 3742 ft | 180 kts | 235° |
| 2026-05-05 16:37 | 36.36592 | -86.56784 | 3598 ft | 173 kts | 227° |
| 2026-05-05 16:37 | 36.35662 | -86.57677 | 3486 ft | 172 kts | 214° |
| 2026-05-05 16:37 | 36.34676 | -86.58542 | 3371 ft | 175 kts | 216° |
| 2026-05-05 16:38 | 36.33692 | -86.59406 | 3267 ft | 172 kts | 216° |
| 2026-05-05 16:38 | 36.32700 | -86.60259 | 3160 ft | 175 kts | 213° |
| 2026-05-05 16:38 | 36.31557 | -86.60770 | 3085 ft | 176 kts | 196° |
| 2026-05-05 16:38 | 36.30362 | -86.61100 | 3063 ft | 175 kts | 197° |
| 2026-05-05 16:39 | 36.29187 | -86.61536 | 2953 ft | 177 kts | 202° |
| 2026-05-05 16:39 | 36.28056 | -86.62120 | 2906 ft | 173 kts | 206° |
| 2026-05-05 16:39 | 36.26977 | -86.62694 | 2816 ft | 165 kts | 203° |
| 2026-05-05 16:39 | 36.25909 | -86.63140 | 2692 ft | 162 kts | 199° |
| 2026-05-05 16:40 | 36.24835 | -86.63514 | 2525 ft | 158 kts | 197° |
| 2026-05-05 16:40 | 36.23787 | -86.63899 | 2440 ft | 155 kts | 198° |
| 2026-05-05 16:40 | 36.22740 | -86.64305 | 2341 ft | 159 kts | 200° |
| 2026-05-05 16:40 | 36.21710 | -86.64728 | 2097 ft | 150 kts | 198° |
| 2026-05-05 16:41 | 36.20730 | -86.65093 | 1973 ft | 142 kts | 196° |
| 2026-05-05 16:41 | 36.19809 | -86.65447 | 1797 ft | 140 kts | 200° |
| 2026-05-05 16:41 | 36.18864 | -86.65855 | 1631 ft | 146 kts | 200° |
| 2026-05-05 16:41 | 36.17885 | -86.66276 | 1480 ft | 149 kts | 201° |
| 2026-05-05 16:42 | 36.16913 | -86.66637 | 1290 ft | 142 kts | 196° |
| 2026-05-05 16:42 | 36.15970 | -86.66986 | 1095 ft | 143 kts | 199° |
| 2026-05-05 16:42 | 36.14991 | -86.67370 | 862 ft | 148 kts | 200° |
| 2026-05-05 16:42 | 36.14007 | -86.67768 | 693 ft | 142 kts | 200° |
| 2026-05-05 16:43 | 36.13130 | -86.68112 | 578 ft | 106 kts | 198° |
| 2026-05-05 16:43 | 36.12776 | -86.68249 | 576 ft | 22 kts | 197° |
| 2026-05-05 16:43 | 36.12620 | -86.68312 | 574 ft | 26 kts | 197° |
| 2026-05-05 16:43 | 36.12423 | -86.68391 | 574 ft | 33 kts | 198° |
| 2026-05-05 16:44 | 36.12216 | -86.68472 | 571 ft | 20 kts | 197° |
| 2026-05-05 16:44 | 36.12153 | -86.68435 | 571 ft | 11 kts | 109° |
| 2026-05-05 16:44 | 36.12132 | -86.68345 | 579 ft | 11 kts | 105° |
| 2026-05-05 16:44 | 36.12182 | -86.68279 | 574 ft | 14 kts | 15° |
| 2026-05-05 16:45 | 36.12294 | -86.68240 | 572 ft | 19 kts | 17° |
| 2026-05-05 16:45 | 36.12425 | -86.68193 | 574 ft | 19 kts | 17° |
| 2026-05-05 16:45 | 36.12553 | -86.68147 | 576 ft | 19 kts | 16° |
| 2026-05-05 16:45 | 36.12677 | -86.68104 | 573 ft | 18 kts | 16° |
| 2026-05-05 16:46 | 36.12748 | -86.68039 | 575 ft | 13 kts | 96° |
| 2026-05-05 16:46 | 36.12690 | -86.67948 | 576 ft | 15 kts | 133° |
| 2026-05-05 16:46 | 36.12614 | -86.67850 | 579 ft | 17 kts | 133° |
| 2026-05-05 16:46 | 36.12525 | -86.67733 | 578 ft | 21 kts | 133° |
| 2026-05-05 16:47 | 36.12420 | -86.67597 | 580 ft | 23 kts | 134° |
| 2026-05-05 16:47 | 36.12301 | -86.67441 | 579 ft | 27 kts | 132° |
| 2026-05-05 16:47 | 36.12196 | -86.67288 | 578 ft | 16 kts | 100° |
| 2026-05-05 16:47 | 36.12254 | -86.67187 | 578 ft | 17 kts | 43° |
| 2026-05-05 16:48 | 36.12351 | -86.67078 | 574 ft | 17 kts | 46° |
| 2026-05-05 16:48 | 36.12455 | -86.66977 | 572 ft | 20 kts | 29° |
| 2026-05-05 16:48 | 36.12580 | -86.66891 | 577 ft | 21 kts | 29° |
| 2026-05-05 16:48 | 36.12700 | -86.66790 | 574 ft | 21 kts | 41° |
| 2026-05-05 16:49 | 36.12806 | -86.66728 | 570 ft | 15 kts | 349° |
| 2026-05-05 16:49 | 36.12869 | -86.66695 | 571 ft | 4 kts | 41° |
| 2026-05-05 16:49 | 36.12877 | -86.66686 | 569 ft | 0 kts | 40° |